Time;durP1;ratioP1;P1;durP2;ratioP2;P2;SDS_P1;SDS_P2;PMS_P1;PMS_P2;Temp;Humidity;BMP_temperature;BMP_pressure;BME280_temperature;BME280_humidity;BME280_pressure;Samples;Min_cycle;Max_cycle;Signal;HPM_P1;HPM_P2
2022/07/15 01:17:50;;;;;;;;;;;;;;;;;;;;;
2022/07/15 02:09:02;;;;;;;;;;;;;;;;;;;;;
2022/07/15 03:03:28;;;;;;;;;;;;;;;;;;;;;
2022/07/15 03:38:54;;;;;;;;;;;;;;;;;;;;;
2022/07/15 06:11:01;;;;;;;4.70;1.20;;;16.40;99.90;;;;;;6044319;22;4097826;-76
2022/07/15 06:13:27;;;;;;;1.90;0.65;;;16.40;99.90;;;;;;6147937;23;20016;-75
2022/07/15 06:15:53;;;;;;;3.78;0.90;;;16.60;99.90;;;;;;6197370;23;20027;-74
2022/07/15 06:18:19;;;;;;;11.38;1.35;;;16.90;99.90;;;;;;6172600;23;20020;-71
2022/07/15 06:20:45;;;;;;;5.85;1.33;;;17.30;99.90;;;;;;6197550;23;20457;-75
2022/07/15 06:23:11;;;;;;;5.90;0.77;;;17.50;99.90;;;;;;6197743;23;20013;-74
2022/07/15 06:25:37;;;;;;;4.65;0.73;;;17.80;99.90;;;;;;6197321;23;20379;-71
2022/07/15 06:29:06;;;;;;;3.67;0.80;;;18.00;99.50;;;;;;6223933;23;20309;-73
2022/07/15 06:31:48;;;;;;;4.07;0.80;;;18.30;98.00;;;;;;6128883;23;20032;-74
2022/07/15 06:37:30;;;;;;;1.50;0.60;;;18.90;97.50;;;;;;6142946;23;20022;-73
2022/07/15 06:39:59;;;;;;;3.05;0.60;;;18.70;96.70;;;;;;6161760;23;20021;-73
2022/07/15 06:42:25;;;;;;;3.83;0.70;;;18.50;96.90;;;;;;6161536;23;20035;-74
2022/07/15 06:44:51;;;;;;;3.38;0.68;;;18.40;97.10;;;;;;6161289;23;20017;-74
2022/07/15 06:47:29;;;;;;;4.25;0.90;;;18.30;96.70;;;;;;6136592;23;20064;-73
2022/07/15 06:49:59;;;;;;;3.20;0.85;;;18.40;96.40;;;;;;6135997;23;20090;-72
2022/07/15 06:52:25;;;;;;;4.15;0.63;;;18.50;96.70;;;;;;6110929;23;20018;-75
2022/07/15 06:54:51;;;;;;;2.25;0.60;;;18.60;95.00;;;;;;6159475;23;20083;-72
2022/07/15 06:57:16;;;;;;;4.15;0.60;;;18.70;95.50;;;;;;6134990;23;20029;-75
2022/07/15 06:59:43;;;;;;;5.78;0.95;;;18.80;95.80;;;;;;6157888;23;20034;-74
2022/07/15 07:02:09;;;;;;;3.40;0.80;;;18.90;95.50;;;;;;6152873;23;20018;-76
2022/07/15 07:04:35;;;;;;;4.57;0.80;;;19.20;95.60;;;;;;6104250;23;20099;-75
2022/07/15 07:07:06;;;;;;;3.50;0.90;;;19.30;94.90;;;;;;6154711;23;20013;-76
2022/07/15 07:09:46;;;;;;;4.05;0.88;;;19.20;94.80;;;;;;6186745;23;20017;-78
2022/07/15 07:12:38;;;;;;;2.85;0.55;;;19.20;94.80;;;;;;6156864;23;20060;-78
2022/07/15 07:15:12;;;;;;;9.90;1.05;;;19.10;94.60;;;;;;6164521;23;20019;-78
2022/07/15 07:17:53;;;;;;;5.57;0.80;;;19.00;94.60;;;;;;6189742;23;20021;-79
2022/07/15 07:20:25;;;;;;;2.97;0.85;;;18.90;94.30;;;;;;6160142;23;20019;-77
2022/07/15 07:23:00;;;;;;;3.17;0.52;;;19.10;94.30;;;;;;6160332;23;20052;-77
2022/07/15 07:25:25;;;;;;;4.15;0.60;;;19.30;94.20;;;;;;6185216;23;20448;-78
2022/07/15 07:27:51;;;;;;;1.75;0.80;;;19.40;94.10;;;;;;6136213;23;20028;-78
2022/07/15 07:30:17;;;;;;;6.03;0.60;;;19.60;94.00;;;;;;6160039;23;20028;-78
2022/07/15 07:32:45;;;;;;;1.95;0.60;;;19.80;94.10;;;;;;6160933;23;20019;-76
2022/07/15 07:35:11;;;;;;;4.78;0.82;;;19.70;93.10;;;;;;6185260;23;20088;-76
2022/07/15 07:37:38;;;;;;;3.78;0.80;;;19.90;93.50;;;;;;6160328;23;20017;-78
2022/07/15 07:40:06;;;;;;;2.08;0.50;;;20.00;92.90;;;;;;6184844;23;20019;-77
2022/07/15 07:42:34;;;;;;;2.78;0.68;;;20.30;92.90;;;;;;6184921;23;20013;-77
2022/07/15 07:45:01;;;;;;;3.35;0.80;;;20.30;92.80;;;;;;6184939;23;20017;-77
2022/07/15 07:47:27;;;;;;;;;;;20.50;92.70;;;;;;6160551;23;20104;-76
2022/07/15 07:49:53;;;;;;;3.50;1.25;;;20.60;91.80;;;;;;6185289;23;20014;-75
2022/07/15 08:00:42;;;;;;;1.90;0.60;;;20.50;90.70;;;;;;6184120;23;20444;-76
2022/07/15 08:03:38;;;;;;;2.90;0.60;;;20.90;90.70;;;;;;6085404;23;20444;-76
2022/07/15 08:10:23;;;;;;;2.55;0.65;;;20.40;90.80;;;;;;6106554;23;20089;-77
2022/07/15 08:13:19;;;;;;;3.85;0.63;;;20.30;91.70;;;;;;5925321;24;20021;-76
2022/07/15 08:16:12;;;;;;;2.63;0.60;;;20.70;91.90;;;;;;5925520;24;20158;-77
2022/07/15 08:23:09;;;;;;;5.10;0.68;;;20.80;89.90;;;;;;5844543;24;20046;-76
2022/07/15 08:26:23;;;;;;;;;;;;;;;;;;;;;
2022/07/15 08:29:48;;;;;;;4.63;0.68;;;21.20;89.90;;;;;;5764925;24;20028;-78
2022/07/15 08:36:18;;;;;;;;;;;;;;;;;;;;;
2022/07/15 08:42:54;;;;;;;2.42;0.40;;;21.90;86.50;;;;;;5794166;24;20030;-78
2022/07/15 08:46:06;;;;;;;;;;;;;;;;;;;;;
2022/07/15 08:48:40;;;;;;;3.40;0.50;;;22.20;84.00;;;;;;5825319;24;20019;-78
2022/07/15 08:54:20;;;;;;;1.52;0.40;;;21.90;85.10;;;;;;5899978;24;20500;-76
2022/07/15 08:57:28;;;;;;;3.10;0.57;;;21.70;85.00;;;;;;5918190;23;20066;-77
2022/07/15 09:00:09;;;;;;;4.07;0.50;;;21.80;87.00;;;;;;6087064;23;20021;-77
2022/07/15 09:02:50;;;;;;;4.75;0.60;;;22.00;86.40;;;;;;6130291;23;20088;-76
2022/07/15 09:05:36;;;;;;;3.15;0.43;;;21.70;84.70;;;;;;6154641;23;20017;-74
2022/07/15 09:08:10;;;;;;;3.40;0.50;;;21.50;84.20;;;;;;6155484;23;20078;-75
2022/07/15 09:10:44;;;;;;;1.60;0.40;;;21.70;85.00;;;;;;6161993;23;20044;-68
2022/07/15 09:14:10;;;;;;;3.17;0.43;;;22.10;85.50;;;;;;6182587;23;20053;-82
2022/07/15 09:16:39;;;;;;;1.85;0.40;;;22.10;82.40;;;;;;6182662;23;20023;-75
2022/07/15 09:19:04;;;;;;;1.08;0.32;;;22.30;83.10;;;;;;6183111;23;20040;-76
2022/07/15 09:21:30;;;;;;;5.15;0.60;;;22.50;82.30;;;;;;6184707;23;20440;-74
2022/07/15 09:24:17;;;;;;;1.27;0.40;;;22.40;82.60;;;;;;6183032;23;20025;-75
2022/07/15 09:27:21;;;;;;;3.25;0.57;;;22.40;81.60;;;;;;6182687;23;20021;-79
2022/07/15 09:36:01;;;;;;;0.98;0.30;;;23.10;80.70;;;;;;6181727;23;20083;-82
2022/07/15 09:39:20;;;;;;;1.50;0.52;;;22.90;80.10;;;;;;6157660;23;20488;-73
2022/07/15 09:49:09;;;;;;;1.63;0.80;;;22.50;80.80;;;;;;6182881;23;20044;-74
2022/07/15 09:52:13;;;;;;;6.68;0.68;;;22.30;81.70;;;;;;6181339;23;20021;-75
2022/07/15 09:54:51;;;;;;;6.05;0.60;;;22.40;80.70;;;;;;6157152;23;20104;-76
2022/07/15 10:01:26;;;;;;;2.90;0.70;;;22.50;80.60;;;;;;6190648;23;20017;-78
2022/07/15 10:04:37;;;;;;;;;;;;;;;;;;;;;
2022/07/15 10:12:01;;;;;;;4.47;0.40;;;22.30;81.60;;;;;;6152941;23;20029;-77
2022/07/15 10:18:34;;;;;;;3.15;0.63;;;22.10;83.30;;;;;;6184581;23;20440;-77
2022/07/15 10:21:17;;;;;;;4.35;0.80;;;22.40;83.90;;;;;;6160766;23;20514;-72
2022/07/15 10:52:34;;;;;;;7.38;0.73;;;23.10;83.70;;;;;;6157759;23;20020;-78
2022/07/15 10:55:54;;;;;;;1.70;0.40;;;23.10;82.90;;;;;;6131248;23;20056;-76
2022/07/15 11:22:13;;;;;;;2.65;0.80;;;22.50;86.10;;;;;;5819375;24;20481;-71
2022/07/15 11:24:39;;;;;;;2.30;0.70;;;22.50;85.70;;;;;;5800496;24;20454;-73
2022/07/15 11:27:05;;;;;;;;;;;22.20;86.00;;;;;;5797042;24;20018;-74
2022/07/15 11:30:01;;;;;;;2.05;0.80;;;22.00;86.20;;;;;;5800235;24;19994;-76
2022/07/15 11:32:34;;;;;;;3.55;0.75;;;22.10;86.90;;;;;;6098639;23;20028;-76
2022/07/15 11:35:19;;;;;;;2.53;1.00;;;22.40;86.10;;;;;;6101625;23;20021;-77
2022/07/15 12:31:49;;;;;;;;;;;;;;;;;;;;;
2022/07/15 12:43:45;;;;;;;2.30;0.93;;;22.80;82.80;;;;;;5840636;24;20087;-75
2022/07/15 13:13:17;;;;;;;6.63;0.93;;;23.10;83.10;;;;;;5769677;24;20019;-78
2022/07/15 13:38:29;;;;;;;1.85;0.98;;;23.60;82.10;;;;;;5952545;24;20463;-77
2022/07/15 13:48:39;;;;;;;4.53;1.10;;;23.60;81.10;;;;;;6011915;23;20022;-81
2022/07/15 15:16:10;;;;;;;7.20;2.20;;;20.00;99.90;;;;;;6152712;23;20021;-72
2022/07/15 15:18:36;;;;;;;7.65;2.08;;;19.90;99.90;;;;;;6106946;23;20021;-75
2022/07/15 15:21:02;;;;;;;8.90;2.20;;;20.00;99.90;;;;;;6155779;23;20016;-74
2022/07/15 15:23:27;;;;;;;6.25;2.08;;;20.10;99.90;;;;;;6155909;23;20076;-72
2022/07/15 15:28:40;;;;;;;6.13;2.13;;;20.10;99.90;;;;;;6156045;23;20026;-73
2022/07/15 15:31:05;;;;;;;6.20;1.95;;;20.30;99.90;;;;;;6155857;23;20440;-75
2022/07/15 15:34:32;;;;;;;;;;;;;;;;;;;;;
2022/07/15 15:37:43;;;;;;;7.22;1.95;;;20.50;99.90;;;;;;6074873;23;20017;-74
2022/07/15 15:40:09;;;;;;;5.53;1.70;;;20.70;99.90;;;;;;6015732;23;20514;-77
2022/07/15 15:42:51;;;;;;;;;;;20.80;99.20;;;;;;6171503;23;20036;-76
2022/07/15 15:46:02;;;;;;;;;;;;;;;;;;;;;
2022/07/15 15:48:59;;;;;;;5.85;1.67;;;20.90;97.70;;;;;;6167322;23;20009;-75
2022/07/15 15:51:30;;;;;;;6.00;1.50;;;20.90;98.10;;;;;;6159260;23;20105;-72
2022/07/15 15:54:16;;;;;;;5.30;1.70;;;20.90;97.80;;;;;;6155508;23;20017;-72
2022/07/15 15:56:47;;;;;;;7.28;1.85;;;20.80;98.00;;;;;;6153817;23;20499;-72
2022/07/15 15:59:24;;;;;;;6.75;1.80;;;20.80;97.20;;;;;;6155160;23;20075;-72
2022/07/15 16:01:50;;;;;;;4.93;1.30;;;20.80;97.80;;;;;;6155132;23;20463;-73
2022/07/15 16:05:15;;;;;;;;;;;;;;;;;;;;;
2022/07/15 16:12:16;;;;;;;4.68;1.60;;;20.50;97.90;;;;;;6157142;23;20332;-78
2022/07/15 16:14:58;;;;;;;6.07;1.60;;;20.50;97.80;;;;;;6156465;23;20440;-75
2022/07/15 16:17:44;;;;;;;6.40;1.57;;;20.50;97.20;;;;;;6154753;23;20009;-75
2022/07/15 16:20:19;;;;;;;6.70;1.27;;;20.40;97.00;;;;;;6157043;23;20049;-76
2022/07/15 16:26:31;;;;;;;7.50;1.58;;;20.30;97.10;;;;;;6154262;23;20017;-78
2022/07/15 16:29:12;;;;;;;5.35;1.52;;;20.20;97.80;;;;;;6154784;23;20045;-77
2022/07/15 18:05:33;;;;;;;5.95;1.25;;;18.90;99.10;;;;;;6148168;23;20439;-78
2022/07/15 18:07:58;;;;;;;3.78;1.00;;;18.80;99.60;;;;;;6164118;23;20019;-67
2022/07/15 18:10:24;;;;;;;3.15;1.23;;;18.80;99.30;;;;;;6189304;23;20005;-65
2022/07/15 18:12:50;;;;;;;5.72;0.90;;;18.70;99.30;;;;;;6164156;23;20092;-66
2022/07/15 18:15:16;;;;;;;2.97;1.13;;;18.60;99.20;;;;;;6188930;23;20016;-66
2022/07/15 18:17:41;;;;;;;3.30;1.35;;;18.60;99.20;;;;;;6188864;23;20016;-66
2022/07/15 18:20:08;;;;;;;6.53;1.17;;;18.50;99.30;;;;;;6189375;23;20088;-66
2022/07/15 18:22:33;;;;;;;;;;;18.50;99.20;;;;;;6189053;23;20012;-66
2022/07/15 18:24:59;;;;;;;4.10;0.80;;;18.40;98.70;;;;;;6164273;23;19912;-67
2022/07/15 18:27:25;;;;;;;5.50;1.00;;;18.40;98.90;;;;;;6188823;23;20340;-66
2022/07/15 18:29:51;;;;;;;;;;;18.40;98.90;;;;;;6163849;23;20083;-66
2022/07/15 18:32:17;;;;;;;3.70;0.90;;;18.30;99.00;;;;;;6188079;23;20349;-67
2022/07/15 18:34:42;;;;;;;3.55;0.95;;;18.30;99.20;;;;;;6188817;23;20051;-66
2022/07/15 18:37:08;;;;;;;4.20;1.10;;;18.30;99.00;;;;;;6188804;23;20023;-66
2022/07/15 18:39:34;;;;;;;2.47;1.00;;;18.30;99.00;;;;;;6188867;23;20380;-65
2022/07/15 18:42:00;;;;;;;2.33;0.80;;;18.30;99.00;;;;;;6163761;23;20100;-66
2022/07/15 18:44:25;;;;;;;4.45;1.00;;;18.30;98.80;;;;;;6163873;23;20020;-66
2022/07/15 18:46:51;;;;;;;2.75;0.80;;;18.20;98.80;;;;;;6188233;23;20016;-67
2022/07/15 18:49:17;;;;;;;2.25;0.93;;;18.20;98.90;;;;;;6163549;23;20132;-67
2022/07/15 18:51:43;;;;;;;2.05;0.70;;;18.10;98.80;;;;;;6188229;23;20009;-66
2022/07/15 18:54:08;;;;;;;3.63;1.08;;;18.10;98.90;;;;;;6163404;23;20009;-67
2022/07/15 18:56:34;;;;;;;3.72;0.95;;;18.10;99.00;;;;;;6164696;23;20083;-66
2022/07/15 18:59:00;;;;;;;2.63;0.95;;;18.10;99.10;;;;;;6165424;23;20013;-67
2022/07/15 19:01:25;;;;;;;2.20;0.80;;;18.10;98.80;;;;;;6190439;23;20017;-66
2022/07/15 19:03:52;;;;;;;2.38;0.88;;;18.00;98.70;;;;;;6189967;23;20052;-66
2022/07/15 19:06:18;;;;;;;2.15;0.90;;;18.00;99.20;;;;;;6189581;23;20013;-65
2022/07/15 19:08:43;;;;;;;3.78;1.50;;;17.90;99.90;;;;;;6165353;23;20442;-65
2022/07/15 19:11:10;;;;;;;4.05;1.50;;;17.80;99.60;;;;;;6165376;23;20017;-65
2022/07/15 19:13:37;;;;;;;3.92;1.60;;;17.60;99.80;;;;;;6190112;23;20012;-65
2022/07/15 19:16:03;;;;;;;5.10;1.60;;;17.50;99.90;;;;;;6165054;23;20044;-66
2022/07/15 19:26:47;;;;;;;;;;;;;;;;;;;;;
2022/07/15 19:30:06;;;;;;;3.95;1.70;;;17.10;99.90;;;;;;5931809;24;20072;-71
2022/07/15 19:36:38;;;;;;;3.63;1.90;;;17.00;99.90;;;;;;5898219;24;20029;-72
2022/07/15 19:39:18;;;;;;;5.60;2.13;;;17.00;99.90;;;;;;5900597;24;20433;-74
2022/07/15 19:41:44;;;;;;;4.60;2.00;;;16.90;99.90;;;;;;6044411;23;20007;-71
2022/07/15 19:44:28;;;;;;;5.80;2.55;;;16.80;99.90;;;;;;6165698;23;20099;-82
2022/07/15 19:47:48;;;;;;;7.43;2.38;;;16.90;99.90;;;;;;6192200;23;20070;-81
2022/07/15 21:48:59;;;;;;;9.98;3.67;;;16.40;99.90;;;;;;6094497;23;20022;-79
2022/07/15 21:52:06;;;;;;;9.77;4.13;;;16.30;99.90;;;;;;6070655;23;20026;-82
2022/07/15 21:54:54;;;;;;;9.32;4.57;;;16.30;99.90;;;;;;5970638;23;20044;-82
2022/07/15 21:57:40;;;;;;;8.55;4.00;;;16.20;99.90;;;;;;6057278;23;20441;-82
2022/07/15 22:00:37;;;;;;;7.32;4.43;;;16.20;99.90;;;;;;6079929;23;20013;-82
2022/07/15 22:03:18;;;;;;;11.18;4.05;;;16.10;99.90;;;;;;6070654;23;20022;-83
2022/07/15 22:05:59;;;;;;;11.80;4.30;;;16.20;99.90;;;;;;6095233;23;20010;-83
2022/07/15 22:08:40;;;;;;;12.13;4.32;;;16.10;99.90;;;;;;6093967;23;20026;-82
2022/07/15 22:11:44;;;;;;;11.88;4.18;;;16.20;99.90;;;;;;6096220;23;20015;-82
2022/07/15 22:14:34;;;;;;;13.02;4.32;;;16.10;99.90;;;;;;6095287;23;20014;-82
2022/07/15 22:17:26;;;;;;;;;;;;;;;;;;;;;
2022/07/15 22:20:27;;;;;;;6.60;2.65;;;16.20;99.90;;;;;;6118725;23;20081;-82
2022/07/15 22:23:43;;;;;;;4.40;2.60;;;16.20;99.90;;;;;;6092232;23;20011;-82
2022/07/15 22:29:35;;;;;;;;;;;16.20;99.90;;;;;;6097597;23;20050;-82
2022/07/15 22:32:32;;;;;;;8.75;2.83;;;16.10;99.90;;;;;;6073163;23;20301;-82
2022/07/15 22:35:59;;;;;;;6.57;2.53;;;16.20;99.90;;;;;;5996155;23;20011;-82
2022/07/15 22:38:52;;;;;;;6.25;2.38;;;16.10;99.90;;;;;;6034835;23;20093;-82
2022/07/15 22:41:57;;;;;;;;;;;;;;;;;;;;;
2022/07/15 22:44:41;;;;;;;6.22;2.38;;;16.10;99.90;;;;;;6121761;23;20025;-82
2022/07/15 22:47:20;;;;;;;8.43;2.92;;;16.10;99.90;;;;;;6070848;23;20010;-82
2022/07/15 22:50:10;;;;;;;6.63;2.55;;;16.10;99.90;;;;;;6065675;23;20022;-82
2022/07/15 22:52:54;;;;;;;6.80;2.50;;;16.20;99.90;;;;;;6093366;23;20025;-82
2022/07/15 22:56:00;;;;;;;;;;;;;;;;;;;;;
2022/07/15 22:59:24;;;;;;;6.43;2.83;;;16.00;99.90;;;;;;5980484;24;20083;-83
2022/07/15 23:02:27;;;;;;;9.50;2.60;;;15.90;99.90;;;;;;5935108;24;20068;-83
2022/07/15 23:05:05;;;;;;;7.50;2.90;;;15.90;99.90;;;;;;5936297;24;20008;-82
2022/07/15 23:08:02;;;;;;;7.47;3.00;;;15.90;99.90;;;;;;5958193;24;20019;-83
2022/07/15 23:11:09;;;;;;;7.00;3.00;;;15.90;99.90;;;;;;6014791;23;20059;-83
2022/07/15 23:17:13;;;;;;;6.22;3.13;;;15.80;99.90;;;;;;6014947;23;20338;-83
2022/07/15 23:23:57;;;;;;;;;;;;;;;;;;;;;
2022/07/15 23:26:42;;;;;;;11.55;3.53;;;15.60;99.90;;;;;;6014457;23;20372;-83
2022/07/15 23:29:47;;;;;;;4.88;3.10;;;15.60;99.90;;;;;;5990606;23;20007;-83
2022/07/15 23:32:41;;;;;;;9.05;3.50;;;15.60;99.90;;;;;;5975808;23;20043;-83
2022/07/15 23:35:45;;;;;;;9.63;3.30;;;15.50;99.90;;;;;;6003504;23;20011;-83
2022/07/15 23:38:44;;;;;;;6.95;3.78;;;15.50;99.90;;;;;;5991942;23;20063;-82
2022/07/15 23:41:49;;;;;;;;;;;;;;;;;;;;;
2022/07/15 23:44:40;;;;;;;11.93;3.78;;;15.50;99.90;;;;;;6069879;23;20025;-83
2022/07/15 23:47:15;;;;;;;12.02;4.88;;;15.50;99.90;;;;;;6080990;23;20014;-83
2022/07/15 23:50:40;;;;;;;9.75;3.60;;;15.60;99.90;;;;;;6096282;23;20010;-82
2022/07/15 23:53:30;;;;;;;;;;;;;;;;;;;;;
2022/07/15 23:56:54;;;;;;;;;;;;;;;;;;;;;
